Terminal Aerodrome Forecast
Issued by NWS Duluth, MN

Home | Current Version | Previous Version | Text Only | Print | Product List | Glossary On
Versions: 1 2 3 4 5 6 7 8 9 10 11 12 13 14 15 16 17 18 19
000
FTUS43 KDLH 261700
TAFINL
TAF
KINL 261733Z 2618/2718 32009KT P6SM SCT015 OVC030
      TEMPO 2618/2622 -SN OVC012
     FM270200 30004KT P6SM SCT025 SCT150
     FM271600 27006KT P6SM SCT020 BKN050=

USA.gov is the U.S. government's official web portal to all federal, state and local government web resources and services.